Adjuster:

Genres

Foreign Language

1980-Present
Only overseas-produced features counted. Re-issues excluded.



Rows: #1-100, #101-200, #201-300, #301-400, #401-500, #501-600, #601-700, #701-800, #801-900, #901-1000, #1001-1100, #1101-1200, #1201-1300, #1301-1400, #1401-1500, #1501-1600, #1601-1700, #1701-1800, #1801-1813
RowRankTitle (click to view)StudioLifetime Gross / TheatersOpening / TheatersDate
1 854 Station Nord Equin. $171,400 46 $42,433 46 11/8/02
2 621 Jee Aayun Nu Mus. $393,117 9 $68,336 9 11/8/02
3 58 El Crimen del Padre Amaro
(Mexico)
IDP $5,717,044 137 $504,681 43 11/15/02
4 29 Talk to Her
(Spain)
SPC $9,285,469 255 $104,396 2 11/22/02
5 1700 Dead or Alive: Final Kino $2,591 1 $1,841 1 11/29/02
6 974 Rishtey Eros $119,537 28 $71,047 28 12/6/02
7 129 Russian Ark Wells $3,048,997 22 $29,022 2 12/13/02
8 1410 Devils on the Doorstep Cow. $18,944 1 $3,227 1 12/18/02
9 680 Saathiya Yash $317,564 29 $71,400 29 12/20/02
10 350 Kaante Med. $1,041,228 29 $425,975 26 12/20/02
11 1101 The Son NYer $70,262 3 $10,048 2 1/10/03
12 1742 Big Shot's Funeral SPC $820 2 $529 2 1/17/03
13 1648 Kira's Reason: A Love Story FRun $4,847 1 $1,501 1 1/17/03
14 650 Dil Ka Rishtaa Tips $345,649 18 $52,170 18 1/17/03
15 35 City of God
(Brazil)
Mira. $7,564,459 242 $88,292 5 1/17/03
16 1018 Dum Eros $101,000 18 $46,700 18 1/24/03
17 1542 Kedma Kino $10,067 2 $1,722 1 1/27/03
18 1203 Zus & Zo
(Holland)
Life $49,468 4 $6,700 2 2/7/03
19 364 He Loves Me, He Loves Me Not IDP $1,011,102 23 $76,000 13 2/14/03
20 1292 Bolivia CTr $33,098 2 $9,899 1 2/26/03
21 1098 Todo el Poder Ven. $70,920 17 $38,090 17 2/28/03
22 427 Irreversible
(France)
Lions $792,200 35 $60,086 7 3/7/03
23 53 Nowhere in Africa
(Germany)
Zeit. $6,180,200 78 $22,070 2 3/7/03
24 1310 Under the Skin of the City Magn. $30,666 3 $7,412 2 3/14/03
25 1375 Fulltime Killer Palm $23,124 5 $3,676 1 3/21/03
26 835 The Girl from Paris FPh $183,266 5 $8,280 1 3/21/03
27 1090 Cet Amour-La NYer $72,844 2 $11,311 2 4/2/03
28 387 The Man Without a Past
(Finland)
SPC $921,847 31 $23,281 2 4/4/03
29 1595 Waiting for Happiness
(Mauritania)
NYer $7,406 1 $1,982 1 4/5/03
30 710 The Hero - Love Story of a Spy VidS $285,394 23 $130,200 21 4/11/03
31 834 Lilya 4Ever NM $184,023 7 $33,731 4 4/18/03
32 1160 House of Fools ParC $57,862 8 $7,246 3 4/25/03
33 922 Marooned in Iraq Wells $141,243 6 $6,696 1 4/25/03
34 825 Le Papillon Chris. $189,144 12 $31,200 12 5/9/03
35 150 Man on the Train
(France)
ParC $2,542,020 85 $41,138 5 5/9/03
36 1341 Everybody Says I'm Fine! Pan. $27,225 3 $3,860 3 5/16/03
37 699 Armaan: The Desire Eros $301,010 50 $225,684 50 5/16/03
38 99 L'Auberge Espagnole
(France)
FoxS $3,897,799 100 $59,315 11 5/16/03
39 881 Friday Night Wells $156,918 5 $9,381 3 5/23/03
40 339 Respiro SPC $1,072,834 32 $71,677 7 5/23/03
41 1002 Bhoot Spk $106,774 19 $60,000 19 5/30/03
42 564 Taxi 3 Chri. $497,208 37 $288,000 37 5/30/03
43 321 Together UA $1,151,941 47 $69,209 6 5/30/03
44 559 The Eye (2003) Palm $512,049 23 $62,062 13 6/6/03
45 967 Tycoon (2003)
(Russia)
NYer $123,159 3 $13,342 2 6/13/03
46 415 Chalte Chalte Eros $836,225 61 $150,000 22 6/13/03
47 588 The Legend of Suriyothai SPC $454,736 22 $45,904 7 6/20/03
48 306 Main Prem Ki Diwani Hoon
(india)
Raj. $1,232,228 60 $672,891 60 6/27/03
49 1517 Gasoline Strand $11,023 2 $2,885 1 7/2/03
50 755 The Cuckoo SPC $243,936 14 $16,473 6 7/11/03
51 579 The Housekeeper Palm $467,288 24 $42,083 6 7/11/03
52 1313 The Sea is Watching SRep $30,577 5 $10,500 5 7/18/03
53 735 Lucia, Lucia FoxS $269,586 53 $70,773 49 7/25/03
54 1452 Seaside FRun $15,290 1 $4,736 1 8/6/03
55 1295 Fanfan la Tulipe Chri. $32,686 19 $32,686 19 8/8/03
56 1077 The Princess Blade ADV $77,567 7 $12,618 4 8/8/03
57 480 Koi... Mil Gaya Yash $671,372 55 $274,851 55 8/8/03
58 613 Hawayein Meg. $409,978 5 $37,812 5 8/15/03
59 1526 Rana's Wedding Arab $10,604 1 $3,099 1 8/22/03
60 1076 Don't Tempt Me First $77,858 5 $15,271 3 8/22/03
61 1034 Autumn Spring First $96,269 5 $10,046 2 8/22/03
62 984 The Other Side of the Bed Sun. $113,543 10 $41,597 10 8/29/03
63 778 Kuch Naa Kaho Eros $224,831 32 $92,197 32 9/5/03
64 1081 So Close Strand $76,584 11 $31,702 11 9/12/03
65 344 Baghban Eros $1,058,803 50 $345,041 50 10/3/03
66 201 Sur le Seuil Ode. $2,014,071 61 $514,762 61 10/3/03
67 1103 Small Voices Sml.Isld $69,739 6 $15,166 6 10/10/03
68 837 The Flower of Evil Palm $182,163 16 $12,419 2 10/10/03
69 154 Bon Voyage (Canada) TVA $2,503,286 16 $38,682 16 10/17/03
70 1507 Love Forbidden Strand $11,421 1 $4,075 1 11/7/03
71 1181 Hukkle Shad. $53,715 4 $2,104 1 11/14/03
72 1727 El Leyton Cn4 $1,332 1 $1,332 1 11/21/03
73 1556 El Bonaerense Men. $9,470 1 $5,550 1 11/26/03
74 206 Kal Ho Naa Ho Yash $1,991,922 52 $758,211 52 11/26/03
75 204 Nez Rouge Chri. $2,004,814 90 $217,000 32 11/28/03
76 137 Monsieur Ibrahim
(France)
SPC $2,823,890 92 $53,174 7 12/3/03
77 1207 Munnabhai Mbbs Eros $48,772 17 $48,772 17 12/19/03
78 998 Il Cuore Altrove Ode. $108,954 8 $20,107 8 12/19/03
79 805 Postmen in the Mountains Shad. $203,975 7 $2,334 1 12/25/03
80 1454 Millennium Mambo Palm $14,904 1 $4,619 1 12/31/03
81 1118 On the Run: Trilogy 1 Magn. $65,172 4 $8,653 1 1/30/04
82 1216 An Amazing Couple: Trilogy 2 Magn. $47,806 2 $8,572 1 2/6/04
83 298 Osama UA $1,270,904 35 $51,969 4 2/6/04
84 1340 After the Life: Trilogy 3 Magn. $27,256 3 $5,198 1 2/13/04
85 1093 The Seagull's Laughter CGld $72,527 3 $7,791 2 2/13/04
86 1684 Abouna Leis. $3,290 1 $2,350 1 2/20/04
87 92 Good Bye, Lenin!
(Germany)
SPC $4,064,200 125 $57,968 6 2/27/04
88 1255 La Vie Promise
(France)
Emp. $40,029 2 $6,761 1 3/5/04
89 1033 Distant NYer $96,293 2 $11,280 2 3/12/04
90 153 Bon Voyage SPC $2,503,286 94 $27,480 1 3/19/04
91 1558 I'll Sing for You FRun $9,425 1 $1,225 1 3/26/04
92 567 Shaolin Soccer
(Hong Kong)
Mira. $489,600 14 $39,167 6 4/2/04
93 160 Spring, Summer, Fall, Winter... and Spring SPC $2,380,788 74 $42,561 6 4/2/04
94 243 I'm Not Scared
(Italy)
Mira. $1,615,328 63 $48,292 4 4/9/04
95 533 Twilight Samurai
(Japan)
Emp. $559,765 16 $8,573 1 4/23/04
96 225 Main Hoon Na
(India)
Eros $1,747,060 79 $704,651 79 4/30/04
97 724 Valentin Mira. $275,968 15 $14,048 2 5/7/04
98 571 Strayed
(France)
Wells $482,757 29 $19,531 2 5/14/04
99 426 Hum Tum Yash $796,641 43 $275,882 43 5/28/04
100 1058 Dev Eros $84,728 35 $84,728 35 6/11/04
TOTAL (All Movies):$1,846,267,605----
AVERAGE (All Movies):$1,052,00445$127,16025-
TOTAL
(Wide Releases Only):
$444,621,727----
AVERAGE
(Wide Releases Only):
$26,154,2191,313$8,308,2201,585-
Rows: #1-100, #101-200, #201-300, #301-400, #401-500, #501-600, #601-700, #701-800, #801-900, #901-1000, #1001-1100, #1101-1200, #1201-1300, #1301-1400, #1401-1500, #1501-1600, #1601-1700, #1701-1800, #1801-1813


If there are any movies that you think should be on this list, e-mail us at mail@boxofficemojo.com.




UPCOMING RELEASES
Title (click to view)StudioRelease Date
Undertow (2010) TFC 9/17/10
The Second Mother Osci. 8/28/15
Coming Home (2015) SPC 9/9/15
Labyrinth of Lies SPC 9/25/15
The Wonders Osci. 10/30/15
Johanna
(Hungary)
Tar. TBD
Abel LGF TBD
When a Wolf Falls in Love with a Sheep N/A TBD
Jolly LLB FIP TBD
Happy New Year (2014) N/A TBD
Suite Francaise Wein. TBD